sensor_id;sensor_type;location;lat;lon;timestamp;P1;durP1;ratioP1;P2;durP2;ratioP2
20497;SDS011;10407;53.238;10.448;2023-09-30T00:01:27;131.90;;;37.83;;
20497;SDS011;10407;53.238;10.448;2023-09-30T00:03:55;135.27;;;37.20;;
20497;SDS011;10407;53.238;10.448;2023-09-30T00:06:22;129.90;;;36.67;;
20497;SDS011;10407;53.238;10.448;2023-09-30T00:08:50;145.40;;;38.13;;
20497;SDS011;10407;53.238;10.448;2023-09-30T00:11:17;135.40;;;35.30;;
20497;SDS011;10407;53.238;10.448;2023-09-30T00:13:45;135.30;;;39.77;;
20497;SDS011;10407;53.238;10.448;2023-09-30T00:16:14;133.70;;;37.53;;
20497;SDS011;10407;53.238;10.448;2023-09-30T00:18:43;146.37;;;35.97;;
20497;SDS011;10407;53.238;10.448;2023-09-30T00:21:12;135.87;;;38.17;;
20497;SDS011;10407;53.238;10.448;2023-09-30T00:23:40;135.87;;;38.03;;
20497;SDS011;10407;53.238;10.448;2023-09-30T00:26:08;137.70;;;34.87;;
20497;SDS011;10407;53.238;10.448;2023-09-30T00:28:35;133.63;;;37.37;;
20497;SDS011;10407;53.238;10.448;2023-09-30T00:31:06;140.07;;;36.73;;
20497;SDS011;10407;53.238;10.448;2023-09-30T00:33:36;142.13;;;38.37;;
20497;SDS011;10407;53.238;10.448;2023-09-30T00:36:07;133.10;;;34.80;;
20497;SDS011;10407;53.238;10.448;2023-09-30T00:38:36;140.87;;;36.77;;
20497;SDS011;10407;53.238;10.448;2023-09-30T00:41:04;130.87;;;31.17;;
20497;SDS011;10407;53.238;10.448;2023-09-30T00:43:31;132.57;;;36.10;;
20497;SDS011;10407;53.238;10.448;2023-09-30T00:46:02;134.73;;;37.20;;
20497;SDS011;10407;53.238;10.448;2023-09-30T00:48:32;140.10;;;37.57;;
20497;SDS011;10407;53.238;10.448;2023-09-30T00:51:00;134.73;;;32.10;;
20497;SDS011;10407;53.238;10.448;2023-09-30T00:53:28;134.80;;;33.20;;
20497;SDS011;10407;53.238;10.448;2023-09-30T00:55:56;133.57;;;33.27;;
20497;SDS011;10407;53.238;10.448;2023-09-30T00:58:25;143.53;;;37.10;;
20497;SDS011;10407;53.238;10.448;2023-09-30T01:00:56;136.50;;;34.37;;
20497;SDS011;10407;53.238;10.448;2023-09-30T01:03:25;145.13;;;36.23;;
20497;SDS011;10407;53.238;10.448;2023-09-30T01:05:53;129.97;;;34.47;;
20497;SDS011;10407;53.238;10.448;2023-09-30T01:08:21;151.87;;;36.53;;
20497;SDS011;10407;53.238;10.448;2023-09-30T01:10:49;137.83;;;38.00;;
20497;SDS011;10407;53.238;10.448;2023-09-30T01:13:16;131.93;;;37.27;;
20497;SDS011;10407;53.238;10.448;2023-09-30T01:15:44;136.87;;;36.40;;
20497;SDS011;10407;53.238;10.448;2023-09-30T01:18:13;140.30;;;36.00;;
20497;SDS011;10407;53.238;10.448;2023-09-30T01:20:40;136.37;;;39.87;;
20497;SDS011;10407;53.238;10.448;2023-09-30T01:23:08;137.80;;;38.47;;
20497;SDS011;10407;53.238;10.448;2023-09-30T01:25:37;135.50;;;37.17;;
20497;SDS011;10407;53.238;10.448;2023-09-30T01:28:07;140.97;;;38.70;;
20497;SDS011;10407;53.238;10.448;2023-09-30T01:30:35;140.07;;;34.50;;
20497;SDS011;10407;53.238;10.448;2023-09-30T01:33:03;138.30;;;35.77;;
20497;SDS011;10407;53.238;10.448;2023-09-30T01:35:33;140.87;;;37.53;;
20497;SDS011;10407;53.238;10.448;2023-09-30T01:38:01;137.50;;;37.70;;
20497;SDS011;10407;53.238;10.448;2023-09-30T01:40:28;146.10;;;38.30;;
20497;SDS011;10407;53.238;10.448;2023-09-30T01:42:56;138.70;;;36.33;;
20497;SDS011;10407;53.238;10.448;2023-09-30T01:45:24;144.03;;;36.47;;
20497;SDS011;10407;53.238;10.448;2023-09-30T01:47:51;140.27;;;39.77;;
20497;SDS011;10407;53.238;10.448;2023-09-30T01:50:19;143.53;;;35.93;;
20497;SDS011;10407;53.238;10.448;2023-09-30T01:52:46;132.40;;;34.40;;
20497;SDS011;10407;53.238;10.448;2023-09-30T01:55:14;142.30;;;38.63;;
20497;SDS011;10407;53.238;10.448;2023-09-30T01:57:41;146.23;;;41.50;;
20497;SDS011;10407;53.238;10.448;2023-09-30T02:00:09;137.53;;;37.90;;
20497;SDS011;10407;53.238;10.448;2023-09-30T02:02:38;133.47;;;36.00;;
20497;SDS011;10407;53.238;10.448;2023-09-30T02:05:07;146.77;;;38.00;;
20497;SDS011;10407;53.238;10.448;2023-09-30T02:07:35;140.67;;;38.20;;
20497;SDS011;10407;53.238;10.448;2023-09-30T02:10:03;144.73;;;34.17;;
20497;SDS011;10407;53.238;10.448;2023-09-30T02:12:31;137.37;;;34.67;;
20497;SDS011;10407;53.238;10.448;2023-09-30T02:14:59;135.33;;;33.20;;
20497;SDS011;10407;53.238;10.448;2023-09-30T02:17:26;135.53;;;33.23;;
20497;SDS011;10407;53.238;10.448;2023-09-30T02:19:54;138.67;;;32.07;;
20497;SDS011;10407;53.238;10.448;2023-09-30T02:22:21;140.70;;;35.40;;
20497;SDS011;10407;53.238;10.448;2023-09-30T02:24:50;135.67;;;34.03;;
20497;SDS011;10407;53.238;10.448;2023-09-30T02:27:18;141.00;;;33.07;;
20497;SDS011;10407;53.238;10.448;2023-09-30T02:29:45;138.27;;;32.27;;
20497;SDS011;10407;53.238;10.448;2023-09-30T02:32:13;133.20;;;32.77;;
20497;SDS011;10407;53.238;10.448;2023-09-30T02:34:40;133.67;;;30.63;;
20497;SDS011;10407;53.238;10.448;2023-09-30T02:37:08;144.30;;;34.50;;
20497;SDS011;10407;53.238;10.448;2023-09-30T02:39:36;133.40;;;33.70;;
20497;SDS011;10407;53.238;10.448;2023-09-30T02:42:04;142.87;;;33.67;;
20497;SDS011;10407;53.238;10.448;2023-09-30T02:44:31;133.23;;;32.67;;
20497;SDS011;10407;53.238;10.448;2023-09-30T02:46:59;135.57;;;31.03;;
20497;SDS011;10407;53.238;10.448;2023-09-30T02:49:26;137.37;;;33.00;;
20497;SDS011;10407;53.238;10.448;2023-09-30T02:51:54;138.57;;;31.13;;
20497;SDS011;10407;53.238;10.448;2023-09-30T02:54:21;137.93;;;30.30;;
20497;SDS011;10407;53.238;10.448;2023-09-30T02:56:49;136.07;;;29.93;;
20497;SDS011;10407;53.238;10.448;2023-09-30T02:59:17;138.27;;;29.43;;
20497;SDS011;10407;53.238;10.448;2023-09-30T03:01:47;135.17;;;31.87;;
20497;SDS011;10407;53.238;10.448;2023-09-30T03:04:14;132.67;;;28.77;;
20497;SDS011;10407;53.238;10.448;2023-09-30T03:06:44;133.17;;;28.90;;
20497;SDS011;10407;53.238;10.448;2023-09-30T03:09:13;135.80;;;28.13;;
20497;SDS011;10407;53.238;10.448;2023-09-30T03:11:41;143.23;;;31.60;;
20497;SDS011;10407;53.238;10.448;2023-09-30T03:14:13;131.00;;;30.33;;
20497;SDS011;10407;53.238;10.448;2023-09-30T03:16:39;145.53;;;29.43;;
20497;SDS011;10407;53.238;10.448;2023-09-30T03:19:07;134.37;;;32.27;;
20497;SDS011;10407;53.238;10.448;2023-09-30T03:21:36;139.27;;;32.90;;
20497;SDS011;10407;53.238;10.448;2023-09-30T03:24:04;136.57;;;35.30;;
20497;SDS011;10407;53.238;10.448;2023-09-30T03:26:34;126.93;;;29.27;;
20497;SDS011;10407;53.238;10.448;2023-09-30T03:29:02;135.47;;;31.33;;
20497;SDS011;10407;53.238;10.448;2023-09-30T03:31:31;136.13;;;31.50;;
20497;SDS011;10407;53.238;10.448;2023-09-30T03:33:58;138.97;;;33.53;;
20497;SDS011;10407;53.238;10.448;2023-09-30T03:36:26;147.20;;;34.70;;
20497;SDS011;10407;53.238;10.448;2023-09-30T03:38:54;138.53;;;34.70;;
20497;SDS011;10407;53.238;10.448;2023-09-30T03:41:23;138.10;;;35.73;;
20497;SDS011;10407;53.238;10.448;2023-09-30T03:43:50;141.20;;;33.33;;
20497;SDS011;10407;53.238;10.448;2023-09-30T03:46:19;136.33;;;36.03;;
20497;SDS011;10407;53.238;10.448;2023-09-30T03:48:46;140.20;;;38.17;;
20497;SDS011;10407;53.238;10.448;2023-09-30T03:51:14;134.53;;;35.53;;
20497;SDS011;10407;53.238;10.448;2023-09-30T03:53:42;139.67;;;36.17;;
20497;SDS011;10407;53.238;10.448;2023-09-30T03:56:11;145.00;;;38.80;;
20497;SDS011;10407;53.238;10.448;2023-09-30T03:58:39;137.27;;;35.50;;
20497;SDS011;10407;53.238;10.448;2023-09-30T04:01:10;142.93;;;37.17;;
20497;SDS011;10407;53.238;10.448;2023-09-30T04:03:40;134.43;;;35.80;;
20497;SDS011;10407;53.238;10.448;2023-09-30T04:06:09;143.20;;;38.50;;
20497;SDS011;10407;53.238;10.448;2023-09-30T04:08:36;150.03;;;40.03;;
20497;SDS011;10407;53.238;10.448;2023-09-30T04:11:04;151.67;;;43.63;;
20497;SDS011;10407;53.238;10.448;2023-09-30T04:13:31;138.07;;;40.13;;
20497;SDS011;10407;53.238;10.448;2023-09-30T04:15:59;148.00;;;45.87;;
20497;SDS011;10407;53.238;10.448;2023-09-30T04:18:27;142.33;;;47.17;;
20497;SDS011;10407;53.238;10.448;2023-09-30T04:20:54;149.63;;;47.47;;
20497;SDS011;10407;53.238;10.448;2023-09-30T04:23:22;145.40;;;45.93;;
20497;SDS011;10407;53.238;10.448;2023-09-30T04:25:50;153.03;;;44.07;;
20497;SDS011;10407;53.238;10.448;2023-09-30T04:28:17;137.83;;;40.77;;
20497;SDS011;10407;53.238;10.448;2023-09-30T04:30:47;145.00;;;40.47;;
20497;SDS011;10407;53.238;10.448;2023-09-30T04:33:15;144.50;;;39.63;;
20497;SDS011;10407;53.238;10.448;2023-09-30T04:35:43;145.17;;;45.47;;
20497;SDS011;10407;53.238;10.448;2023-09-30T04:38:11;141.07;;;42.87;;
20497;SDS011;10407;53.238;10.448;2023-09-30T04:40:39;149.27;;;41.23;;
20497;SDS011;10407;53.238;10.448;2023-09-30T04:43:08;136.97;;;40.13;;
20497;SDS011;10407;53.238;10.448;2023-09-30T04:45:36;139.20;;;37.63;;
20497;SDS011;10407;53.238;10.448;2023-09-30T04:48:04;144.73;;;39.60;;
20497;SDS011;10407;53.238;10.448;2023-09-30T04:50:31;144.10;;;34.83;;
20497;SDS011;10407;53.238;10.448;2023-09-30T04:52:59;137.93;;;40.20;;
20497;SDS011;10407;53.238;10.448;2023-09-30T04:55:28;141.37;;;37.57;;
20497;SDS011;10407;53.238;10.448;2023-09-30T04:57:55;146.73;;;44.50;;
20497;SDS011;10407;53.238;10.448;2023-09-30T05:00:23;141.80;;;42.80;;
20497;SDS011;10407;53.238;10.448;2023-09-30T05:02:57;143.97;;;42.00;;
20497;SDS011;10407;53.238;10.448;2023-09-30T05:05:25;143.20;;;47.43;;
20497;SDS011;10407;53.238;10.448;2023-09-30T05:07:52;146.30;;;46.37;;
20497;SDS011;10407;53.238;10.448;2023-09-30T05:10:20;140.00;;;39.17;;
20497;SDS011;10407;53.238;10.448;2023-09-30T05:12:48;144.03;;;41.57;;
20497;SDS011;10407;53.238;10.448;2023-09-30T05:15:17;145.07;;;41.97;;
20497;SDS011;10407;53.238;10.448;2023-09-30T05:17:45;162.07;;;43.60;;
20497;SDS011;10407;53.238;10.448;2023-09-30T05:20:13;143.93;;;43.97;;
20497;SDS011;10407;53.238;10.448;2023-09-30T05:22:43;140.20;;;46.50;;
20497;SDS011;10407;53.238;10.448;2023-09-30T05:25:15;140.77;;;45.20;;
20497;SDS011;10407;53.238;10.448;2023-09-30T05:27:43;148.90;;;45.83;;
20497;SDS011;10407;53.238;10.448;2023-09-30T05:30:13;142.13;;;46.07;;
20497;SDS011;10407;53.238;10.448;2023-09-30T05:32:41;139.27;;;43.90;;
20497;SDS011;10407;53.238;10.448;2023-09-30T05:35:09;137.80;;;39.27;;
20497;SDS011;10407;53.238;10.448;2023-09-30T05:37:41;162.10;;;47.20;;
20497;SDS011;10407;53.238;10.448;2023-09-30T05:40:11;158.53;;;50.70;;
20497;SDS011;10407;53.238;10.448;2023-09-30T05:42:49;165.20;;;48.30;;
20497;SDS011;10407;53.238;10.448;2023-09-30T05:45:18;148.40;;;41.57;;
20497;SDS011;10407;53.238;10.448;2023-09-30T05:47:45;140.00;;;36.07;;
20497;SDS011;10407;53.238;10.448;2023-09-30T05:50:13;146.77;;;37.30;;
20497;SDS011;10407;53.238;10.448;2023-09-30T05:52:42;137.83;;;36.17;;
20497;SDS011;10407;53.238;10.448;2023-09-30T05:55:12;134.87;;;32.77;;
20497;SDS011;10407;53.238;10.448;2023-09-30T05:57:41;140.87;;;33.50;;
20497;SDS011;10407;53.238;10.448;2023-09-30T06:00:10;135.70;;;32.43;;
20497;SDS011;10407;53.238;10.448;2023-09-30T06:02:40;139.10;;;31.70;;
20497;SDS011;10407;53.238;10.448;2023-09-30T06:05:08;140.67;;;32.40;;
20497;SDS011;10407;53.238;10.448;2023-09-30T06:07:37;137.50;;;29.67;;
20497;SDS011;10407;53.238;10.448;2023-09-30T06:10:04;133.77;;;29.60;;
20497;SDS011;10407;53.238;10.448;2023-09-30T06:12:34;131.13;;;28.93;;
20497;SDS011;10407;53.238;10.448;2023-09-30T06:15:02;134.07;;;31.17;;
20497;SDS011;10407;53.238;10.448;2023-09-30T06:17:31;135.30;;;29.97;;
20497;SDS011;10407;53.238;10.448;2023-09-30T06:19:59;134.47;;;28.67;;
20497;SDS011;10407;53.238;10.448;2023-09-30T06:22:28;143.57;;;29.17;;
20497;SDS011;10407;53.238;10.448;2023-09-30T06:24:55;133.57;;;29.00;;
20497;SDS011;10407;53.238;10.448;2023-09-30T06:27:23;131.53;;;27.87;;
20497;SDS011;10407;53.238;10.448;2023-09-30T06:29:50;134.40;;;28.23;;
20497;SDS011;10407;53.238;10.448;2023-09-30T06:32:18;141.50;;;30.00;;
20497;SDS011;10407;53.238;10.448;2023-09-30T06:34:46;145.03;;;28.60;;
20497;SDS011;10407;53.238;10.448;2023-09-30T06:37:13;136.30;;;29.07;;
20497;SDS011;10407;53.238;10.448;2023-09-30T06:39:41;131.83;;;29.47;;
20497;SDS011;10407;53.238;10.448;2023-09-30T06:42:08;135.60;;;31.27;;
20497;SDS011;10407;53.238;10.448;2023-09-30T06:44:36;135.93;;;34.97;;
20497;SDS011;10407;53.238;10.448;2023-09-30T06:47:03;137.80;;;36.50;;
20497;SDS011;10407;53.238;10.448;2023-09-30T06:49:33;144.70;;;37.97;;
20497;SDS011;10407;53.238;10.448;2023-09-30T06:52:01;154.10;;;41.50;;
20497;SDS011;10407;53.238;10.448;2023-09-30T06:54:30;133.47;;;39.47;;
20497;SDS011;10407;53.238;10.448;2023-09-30T06:56:58;137.40;;;44.97;;
20497;SDS011;10407;53.238;10.448;2023-09-30T06:59:25;138.97;;;41.60;;
20497;SDS011;10407;53.238;10.448;2023-09-30T07:01:53;146.93;;;33.10;;
20497;SDS011;10407;53.238;10.448;2023-09-30T07:04:20;131.67;;;33.97;;
20497;SDS011;10407;53.238;10.448;2023-09-30T07:06:48;139.43;;;37.50;;
20497;SDS011;10407;53.238;10.448;2023-09-30T07:09:15;140.50;;;35.40;;
20497;SDS011;10407;53.238;10.448;2023-09-30T07:11:44;133.43;;;30.67;;
20497;SDS011;10407;53.238;10.448;2023-09-30T07:14:12;136.60;;;28.93;;
20497;SDS011;10407;53.238;10.448;2023-09-30T07:16:40;138.17;;;27.30;;
20497;SDS011;10407;53.238;10.448;2023-09-30T07:19:08;131.57;;;27.70;;
20497;SDS011;10407;53.238;10.448;2023-09-30T07:21:36;135.53;;;26.83;;
20497;SDS011;10407;53.238;10.448;2023-09-30T07:24:04;132.43;;;30.07;;
20497;SDS011;10407;53.238;10.448;2023-09-30T07:26:31;135.23;;;26.40;;
20497;SDS011;10407;53.238;10.448;2023-09-30T07:28:59;127.17;;;26.07;;
20497;SDS011;10407;53.238;10.448;2023-09-30T07:31:26;134.83;;;26.40;;
20497;SDS011;10407;53.238;10.448;2023-09-30T07:33:55;133.00;;;28.27;;
20497;SDS011;10407;53.238;10.448;2023-09-30T07:36:23;132.93;;;27.90;;
20497;SDS011;10407;53.238;10.448;2023-09-30T07:38:50;134.20;;;29.27;;
20497;SDS011;10407;53.238;10.448;2023-09-30T07:41:18;129.33;;;26.53;;
20497;SDS011;10407;53.238;10.448;2023-09-30T07:43:46;128.20;;;30.53;;
20497;SDS011;10407;53.238;10.448;2023-09-30T07:46:14;124.87;;;21.90;;
20497;SDS011;10407;53.238;10.448;2023-09-30T07:48:41;123.33;;;21.30;;
20497;SDS011;10407;53.238;10.448;2023-09-30T07:51:09;124.37;;;23.70;;
20497;SDS011;10407;53.238;10.448;2023-09-30T07:53:38;125.37;;;23.60;;
20497;SDS011;10407;53.238;10.448;2023-09-30T07:56:06;126.80;;;21.87;;
20497;SDS011;10407;53.238;10.448;2023-09-30T07:58:34;130.50;;;21.27;;
20497;SDS011;10407;53.238;10.448;2023-09-30T08:01:02;127.30;;;21.17;;
20497;SDS011;10407;53.238;10.448;2023-09-30T08:03:30;124.50;;;21.57;;
20497;SDS011;10407;53.238;10.448;2023-09-30T08:05:57;134.93;;;24.67;;
20497;SDS011;10407;53.238;10.448;2023-09-30T08:08:25;125.43;;;24.17;;
20497;SDS011;10407;53.238;10.448;2023-09-30T08:10:52;128.43;;;26.27;;
20497;SDS011;10407;53.238;10.448;2023-09-30T08:13:22;126.17;;;28.00;;
20497;SDS011;10407;53.238;10.448;2023-09-30T08:15:50;132.53;;;28.47;;
20497;SDS011;10407;53.238;10.448;2023-09-30T08:18:19;130.03;;;30.60;;
20497;SDS011;10407;53.238;10.448;2023-09-30T08:20:47;130.23;;;30.20;;
20497;SDS011;10407;53.238;10.448;2023-09-30T08:23:15;130.00;;;28.87;;
20497;SDS011;10407;53.238;10.448;2023-09-30T08:25:42;127.67;;;26.43;;
20497;SDS011;10407;53.238;10.448;2023-09-30T08:28:10;130.57;;;29.30;;
20497;SDS011;10407;53.238;10.448;2023-09-30T08:30:38;134.30;;;30.07;;
20497;SDS011;10407;53.238;10.448;2023-09-30T08:33:06;129.27;;;27.30;;
20497;SDS011;10407;53.238;10.448;2023-09-30T08:35:36;136.43;;;24.90;;
20497;SDS011;10407;53.238;10.448;2023-09-30T08:38:05;127.80;;;23.43;;
20497;SDS011;10407;53.238;10.448;2023-09-30T08:40:33;124.53;;;24.10;;
20497;SDS011;10407;53.238;10.448;2023-09-30T08:43:00;148.53;;;33.03;;
20497;SDS011;10407;53.238;10.448;2023-09-30T08:45:31;137.63;;;25.53;;
20497;SDS011;10407;53.238;10.448;2023-09-30T08:48:02;139.67;;;26.00;;
20497;SDS011;10407;53.238;10.448;2023-09-30T08:50:31;137.50;;;27.90;;
20497;SDS011;10407;53.238;10.448;2023-09-30T08:53:00;127.90;;;23.47;;
20497;SDS011;10407;53.238;10.448;2023-09-30T08:55:29;130.70;;;23.10;;
20497;SDS011;10407;53.238;10.448;2023-09-30T08:58:00;134.53;;;26.20;;
20497;SDS011;10407;53.238;10.448;2023-09-30T09:00:29;161.87;;;39.20;;
20497;SDS011;10407;53.238;10.448;2023-09-30T09:02:56;127.17;;;23.67;;
20497;SDS011;10407;53.238;10.448;2023-09-30T09:05:24;126.50;;;22.50;;
20497;SDS011;10407;53.238;10.448;2023-09-30T09:07:52;124.17;;;24.00;;
20497;SDS011;10407;53.238;10.448;2023-09-30T09:10:20;124.03;;;21.83;;
20497;SDS011;10407;53.238;10.448;2023-09-30T09:12:54;126.80;;;24.33;;
20497;SDS011;10407;53.238;10.448;2023-09-30T09:15:22;129.30;;;20.50;;
20497;SDS011;10407;53.238;10.448;2023-09-30T09:17:51;134.10;;;26.40;;
20497;SDS011;10407;53.238;10.448;2023-09-30T09:20:20;141.43;;;29.67;;
20497;SDS011;10407;53.238;10.448;2023-09-30T09:22:50;131.00;;;24.17;;
20497;SDS011;10407;53.238;10.448;2023-09-30T09:25:21;123.57;;;19.97;;
20497;SDS011;10407;53.238;10.448;2023-09-30T09:27:50;132.83;;;21.60;;
20497;SDS011;10407;53.238;10.448;2023-09-30T09:33:01;125.20;;;19.53;;
20497;SDS011;10407;53.238;10.448;2023-09-30T09:35:34;121.90;;;18.77;;
20497;SDS011;10407;53.238;10.448;2023-09-30T09:38:02;124.03;;;20.50;;
20497;SDS011;10407;53.238;10.448;2023-09-30T09:40:35;124.63;;;20.87;;
20497;SDS011;10407;53.238;10.448;2023-09-30T09:43:05;121.27;;;19.73;;
20497;SDS011;10407;53.238;10.448;2023-09-30T09:45:34;128.07;;;20.10;;
20497;SDS011;10407;53.238;10.448;2023-09-30T09:48:03;125.07;;;18.57;;
20497;SDS011;10407;53.238;10.448;2023-09-30T09:50:32;126.33;;;18.77;;
20497;SDS011;10407;53.238;10.448;2023-09-30T09:53:03;122.37;;;18.63;;
20497;SDS011;10407;53.238;10.448;2023-09-30T09:55:31;123.30;;;19.07;;
20497;SDS011;10407;53.238;10.448;2023-09-30T09:58:00;125.90;;;20.10;;
20497;SDS011;10407;53.238;10.448;2023-09-30T10:00:30;122.80;;;18.93;;
20497;SDS011;10407;53.238;10.448;2023-09-30T10:03:00;134.63;;;20.40;;
20497;SDS011;10407;53.238;10.448;2023-09-30T10:05:28;126.27;;;20.53;;
20497;SDS011;10407;53.238;10.448;2023-09-30T10:10:30;122.17;;;19.27;;
20497;SDS011;10407;53.238;10.448;2023-09-30T10:13:00;122.70;;;18.90;;
20497;SDS011;10407;53.238;10.448;2023-09-30T10:18:05;131.37;;;21.17;;
20497;SDS011;10407;53.238;10.448;2023-09-30T10:20:41;119.57;;;20.27;;
20497;SDS011;10407;53.238;10.448;2023-09-30T10:23:23;124.60;;;22.20;;
20497;SDS011;10407;53.238;10.448;2023-09-30T10:25:52;129.50;;;21.17;;
20497;SDS011;10407;53.238;10.448;2023-09-30T10:28:33;123.87;;;20.40;;
20497;SDS011;10407;53.238;10.448;2023-09-30T10:31:20;124.10;;;20.67;;
20497;SDS011;10407;53.238;10.448;2023-09-30T10:36:42;125.80;;;20.33;;
20497;SDS011;10407;53.238;10.448;2023-09-30T10:39:13;124.47;;;18.80;;
20497;SDS011;10407;53.238;10.448;2023-09-30T10:47:00;128.13;;;18.70;;
20497;SDS011;10407;53.238;10.448;2023-09-30T10:49:46;126.43;;;21.43;;
20497;SDS011;10407;53.238;10.448;2023-09-30T10:52:21;126.33;;;19.90;;
20497;SDS011;10407;53.238;10.448;2023-09-30T10:54:51;126.10;;;22.37;;
20497;SDS011;10407;53.238;10.448;2023-09-30T10:57:28;126.00;;;22.07;;
20497;SDS011;10407;53.238;10.448;2023-09-30T11:00:08;130.33;;;23.27;;
20497;SDS011;10407;53.238;10.448;2023-09-30T11:02:47;122.37;;;21.87;;
20497;SDS011;10407;53.238;10.448;2023-09-30T11:05:17;123.20;;;20.47;;
20497;SDS011;10407;53.238;10.448;2023-09-30T11:07:47;126.27;;;21.37;;
20497;SDS011;10407;53.238;10.448;2023-09-30T11:10:17;122.17;;;19.80;;
20497;SDS011;10407;53.238;10.448;2023-09-30T11:12:56;124.23;;;21.07;;
20497;SDS011;10407;53.238;10.448;2023-09-30T11:15:24;123.87;;;20.13;;
20497;SDS011;10407;53.238;10.448;2023-09-30T11:17:53;130.73;;;23.00;;
20497;SDS011;10407;53.238;10.448;2023-09-30T11:20:22;133.70;;;23.13;;
20497;SDS011;10407;53.238;10.448;2023-09-30T11:22:50;149.43;;;30.50;;
20497;SDS011;10407;53.238;10.448;2023-09-30T11:25:17;128.63;;;23.80;;
20497;SDS011;10407;53.238;10.448;2023-09-30T11:27:47;130.67;;;23.90;;
20497;SDS011;10407;53.238;10.448;2023-09-30T11:30:14;127.30;;;23.50;;
20497;SDS011;10407;53.238;10.448;2023-09-30T11:32:43;127.40;;;21.77;;
20497;SDS011;10407;53.238;10.448;2023-09-30T11:35:32;123.10;;;21.47;;
20497;SDS011;10407;53.238;10.448;2023-09-30T11:37:50;131.67;;;24.47;;
20497;SDS011;10407;53.238;10.448;2023-09-30T11:40:18;141.30;;;26.30;;
20497;SDS011;10407;53.238;10.448;2023-09-30T11:45:33;121.47;;;20.03;;
20497;SDS011;10407;53.238;10.448;2023-09-30T11:48:01;122.50;;;21.27;;
20497;SDS011;10407;53.238;10.448;2023-09-30T11:50:44;119.27;;;21.10;;
20497;SDS011;10407;53.238;10.448;2023-09-30T11:53:15;122.37;;;19.47;;
20497;SDS011;10407;53.238;10.448;2023-09-30T11:55:45;133.07;;;21.13;;
20497;SDS011;10407;53.238;10.448;2023-09-30T11:58:13;119.70;;;21.17;;
20497;SDS011;10407;53.238;10.448;2023-09-30T12:00:42;123.07;;;20.90;;
20497;SDS011;10407;53.238;10.448;2023-09-30T12:03:10;130.90;;;21.17;;
20497;SDS011;10407;53.238;10.448;2023-09-30T12:05:37;126.47;;;20.93;;
20497;SDS011;10407;53.238;10.448;2023-09-30T12:08:05;129.10;;;22.90;;
20497;SDS011;10407;53.238;10.448;2023-09-30T12:10:33;120.17;;;19.03;;
20497;SDS011;10407;53.238;10.448;2023-09-30T12:13:00;125.93;;;22.63;;
20497;SDS011;10407;53.238;10.448;2023-09-30T12:15:28;123.57;;;22.37;;
20497;SDS011;10407;53.238;10.448;2023-09-30T12:17:55;132.87;;;25.20;;
20497;SDS011;10407;53.238;10.448;2023-09-30T12:20:23;127.30;;;21.47;;
20497;SDS011;10407;53.238;10.448;2023-09-30T12:22:51;124.23;;;20.43;;
20497;SDS011;10407;53.238;10.448;2023-09-30T12:25:19;123.57;;;20.83;;
20497;SDS011;10407;53.238;10.448;2023-09-30T12:27:48;123.37;;;19.60;;
20497;SDS011;10407;53.238;10.448;2023-09-30T12:30:16;120.33;;;18.83;;
20497;SDS011;10407;53.238;10.448;2023-09-30T12:32:45;122.07;;;18.43;;
20497;SDS011;10407;53.238;10.448;2023-09-30T12:35:13;125.90;;;20.83;;
20497;SDS011;10407;53.238;10.448;2023-09-30T12:37:41;123.17;;;22.20;;
20497;SDS011;10407;53.238;10.448;2023-09-30T12:40:10;120.40;;;19.70;;
20497;SDS011;10407;53.238;10.448;2023-09-30T12:42:39;119.20;;;18.33;;
20497;SDS011;10407;53.238;10.448;2023-09-30T12:45:08;120.77;;;19.37;;
20497;SDS011;10407;53.238;10.448;2023-09-30T12:47:36;125.47;;;22.37;;
20497;SDS011;10407;53.238;10.448;2023-09-30T12:50:04;121.40;;;20.53;;
20497;SDS011;10407;53.238;10.448;2023-09-30T12:52:34;120.57;;;20.63;;
20497;SDS011;10407;53.238;10.448;2023-09-30T12:55:04;125.47;;;21.97;;
20497;SDS011;10407;53.238;10.448;2023-09-30T12:57:32;129.10;;;19.73;;
20497;SDS011;10407;53.238;10.448;2023-09-30T12:59:59;126.97;;;17.40;;
20497;SDS011;10407;53.238;10.448;2023-09-30T13:02:28;120.10;;;17.67;;
20497;SDS011;10407;53.238;10.448;2023-09-30T13:04:56;130.60;;;18.87;;
20497;SDS011;10407;53.238;10.448;2023-09-30T13:07:23;120.57;;;18.30;;
20497;SDS011;10407;53.238;10.448;2023-09-30T13:09:51;120.77;;;20.27;;
20497;SDS011;10407;53.238;10.448;2023-09-30T13:12:18;127.53;;;20.70;;
20497;SDS011;10407;53.238;10.448;2023-09-30T13:14:46;130.90;;;23.80;;
20497;SDS011;10407;53.238;10.448;2023-09-30T13:17:13;128.97;;;23.30;;
20497;SDS011;10407;53.238;10.448;2023-09-30T13:19:42;133.93;;;22.23;;
20497;SDS011;10407;53.238;10.448;2023-09-30T13:22:09;126.30;;;21.63;;
20497;SDS011;10407;53.238;10.448;2023-09-30T13:24:38;119.83;;;17.87;;
20497;SDS011;10407;53.238;10.448;2023-09-30T13:27:08;118.00;;;18.17;;
20497;SDS011;10407;53.238;10.448;2023-09-30T13:29:35;118.93;;;20.10;;
20497;SDS011;10407;53.238;10.448;2023-09-30T13:32:04;127.83;;;22.53;;
20497;SDS011;10407;53.238;10.448;2023-09-30T13:34:31;126.00;;;18.90;;
20497;SDS011;10407;53.238;10.448;2023-09-30T13:36:59;121.27;;;19.70;;
20497;SDS011;10407;53.238;10.448;2023-09-30T13:39:26;123.50;;;20.47;;
20497;SDS011;10407;53.238;10.448;2023-09-30T13:41:54;125.50;;;18.63;;
20497;SDS011;10407;53.238;10.448;2023-09-30T13:44:22;123.87;;;17.83;;
20497;SDS011;10407;53.238;10.448;2023-09-30T13:46:49;116.90;;;16.73;;
20497;SDS011;10407;53.238;10.448;2023-09-30T13:49:17;123.93;;;19.97;;
20497;SDS011;10407;53.238;10.448;2023-09-30T13:51:44;121.80;;;19.70;;
20497;SDS011;10407;53.238;10.448;2023-09-30T13:54:12;118.13;;;16.70;;
20497;SDS011;10407;53.238;10.448;2023-09-30T13:56:40;121.90;;;20.70;;
20497;SDS011;10407;53.238;10.448;2023-09-30T13:59:10;122.97;;;17.77;;
20497;SDS011;10407;53.238;10.448;2023-09-30T14:01:37;126.43;;;17.20;;
20497;SDS011;10407;53.238;10.448;2023-09-30T14:04:07;118.87;;;18.37;;
20497;SDS011;10407;53.238;10.448;2023-09-30T14:06:35;118.50;;;18.00;;
20497;SDS011;10407;53.238;10.448;2023-09-30T14:09:03;119.50;;;18.13;;
20497;SDS011;10407;53.238;10.448;2023-09-30T14:11:31;126.60;;;19.80;;
20497;SDS011;10407;53.238;10.448;2023-09-30T14:13:58;118.53;;;17.13;;
20497;SDS011;10407;53.238;10.448;2023-09-30T14:16:26;116.67;;;16.33;;
20497;SDS011;10407;53.238;10.448;2023-09-30T14:18:54;120.60;;;17.60;;
20497;SDS011;10407;53.238;10.448;2023-09-30T14:21:21;118.53;;;18.83;;
20497;SDS011;10407;53.238;10.448;2023-09-30T14:23:49;118.50;;;19.03;;